createdAt,value
2018-09-21T00:01:56.892Z,44.00
2018-09-21T00:07:00.470Z,43.70
2018-09-21T00:12:04.023Z,43.70
2018-09-21T00:17:07.246Z,43.60
2018-09-21T00:22:10.681Z,43.60
2018-09-21T00:27:13.898Z,43.60
2018-09-21T00:32:17.188Z,43.60
2018-09-21T00:37:20.927Z,43.50
2018-09-21T00:42:24.167Z,43.50
2018-09-21T00:47:27.649Z,43.50
2018-09-21T00:52:30.858Z,43.50
2018-09-21T00:57:34.211Z,43.50
2018-09-21T01:02:37.679Z,43.50
2018-09-21T01:07:40.912Z,43.50
2018-09-21T01:12:44.516Z,43.40
2018-09-21T01:17:47.705Z,43.40
2018-09-21T01:22:51.017Z,43.40
2018-09-21T01:27:54.518Z,43.50
2018-09-21T01:32:58.209Z,43.50
2018-09-21T01:38:01.463Z,43.50
2018-09-21T01:43:04.699Z,43.50
2018-09-21T01:48:08.023Z,43.50
2018-09-21T01:53:11.218Z,43.50
2018-09-21T01:58:14.607Z,43.50
2018-09-21T02:03:18.160Z,43.50
2018-09-21T02:08:21.621Z,43.50
2018-09-21T02:13:25.013Z,43.60
2018-09-21T02:18:28.256Z,43.60
2018-09-21T02:23:31.454Z,43.50
2018-09-21T02:28:34.747Z,43.60
2018-09-21T02:33:37.992Z,43.60
2018-09-21T02:38:41.166Z,43.60
2018-09-21T02:43:44.613Z,43.70
2018-09-21T02:48:48.012Z,43.80
2018-09-21T02:53:51.469Z,43.70
2018-09-21T02:58:54.664Z,43.80
2018-09-21T03:03:57.875Z,43.80
2018-09-21T03:09:01.055Z,43.80
2018-09-21T03:14:04.787Z,43.80
2018-09-21T03:19:08.295Z,43.80
2018-09-21T03:24:11.523Z,43.80
2018-09-21T03:29:14.952Z,43.90
2018-09-21T03:34:18.219Z,44.00
2018-09-21T03:39:21.428Z,44.00
2018-09-21T03:44:24.787Z,44.00
2018-09-21T03:49:28.102Z,44.00
2018-09-21T03:54:31.293Z,43.90
2018-09-21T03:59:34.603Z,43.80
2018-09-21T04:04:41.029Z,43.80
2018-09-21T04:09:44.575Z,44.40
2018-09-21T04:14:48.076Z,43.80
2018-09-21T04:19:51.468Z,43.90
2018-09-21T04:24:55.218Z,43.90
2018-09-21T04:29:58.940Z,43.80
2018-09-21T04:35:02.808Z,43.80
2018-09-21T04:40:06.678Z,43.80
2018-09-21T04:45:10.265Z,43.90
2018-09-21T04:50:14.040Z,43.90
2018-09-21T04:55:17.637Z,43.80
2018-09-21T05:00:21.428Z,44.10
2018-09-21T05:05:25.467Z,44.10
2018-09-21T05:10:29.031Z,44.00
2018-09-21T05:15:32.682Z,44.00
2018-09-21T05:20:36.376Z,44.00
2018-09-21T05:25:39.599Z,43.90
2018-09-21T05:30:43.106Z,43.80
2018-09-21T05:35:46.373Z,43.80
2018-09-21T05:40:49.920Z,43.80
2018-09-21T05:45:53.518Z,43.80
2018-09-21T05:50:56.803Z,43.80
2018-09-21T05:56:00.306Z,44.00
2018-09-21T06:01:03.623Z,44.10
2018-09-21T06:06:07.069Z,44.00
2018-09-21T06:11:10.373Z,44.00
2018-09-21T06:16:14.033Z,44.00
2018-09-21T06:21:17.679Z,44.00
2018-09-21T06:26:21.049Z,44.00
2018-09-21T06:31:24.809Z,43.90
2018-09-21T06:36:28.213Z,44.00
2018-09-21T06:41:32.076Z,44.00
2018-09-21T06:46:35.328Z,43.90
2018-09-21T06:51:39.032Z,43.80
2018-09-21T06:56:42.341Z,43.70
2018-09-21T07:01:45.777Z,43.70
2018-09-21T07:06:49.220Z,43.70
2018-09-21T07:11:52.712Z,43.80
2018-09-21T07:16:56.512Z,43.80
2018-09-21T07:21:59.980Z,43.90
2018-09-21T07:27:03.188Z,43.70
2018-09-21T07:32:06.499Z,43.70
2018-09-21T07:37:09.969Z,43.70
2018-09-21T07:42:13.340Z,43.60
2018-09-21T07:47:16.937Z,43.50
2018-09-21T07:52:20.314Z,43.30
2018-09-21T07:57:23.524Z,43.40
2018-09-21T08:02:26.985Z,43.30
2018-09-21T08:07:30.309Z,43.40
2018-09-21T08:12:33.786Z,43.40
2018-09-21T08:17:37.089Z,43.40
2018-09-21T08:22:40.556Z,43.50
2018-09-21T08:27:44.547Z,43.30
2018-09-21T08:32:47.861Z,43.20
2018-09-21T08:37:51.775Z,43.70
2018-09-21T08:42:55.169Z,42.70
2018-09-21T08:47:58.510Z,43.00
2018-09-21T08:53:01.859Z,43.00
2018-09-21T08:58:05.359Z,42.80
2018-09-21T09:03:08.718Z,42.90
2018-09-21T09:08:12.312Z,42.60
2018-09-21T09:13:15.965Z,42.50
2018-09-21T09:18:19.815Z,42.60
2018-09-21T09:23:23.372Z,42.60
2018-09-21T09:28:27.271Z,42.80
2018-09-21T09:33:30.713Z,42.60
2018-09-21T09:38:33.991Z,42.60
2018-09-21T09:43:37.231Z,42.50
2018-09-21T09:48:41.182Z,42.20
2018-09-21T09:53:45.250Z,42.40
2018-09-21T09:58:48.587Z,42.40
2018-09-21T10:03:52.312Z,42.40
2018-09-21T10:09:01.732Z,42.50
2018-09-21T10:14:05.058Z,42.30
2018-09-21T10:19:08.797Z,42.00
2018-09-21T10:24:12.200Z,42.20
2018-09-21T10:29:15.571Z,41.90
2018-09-21T10:34:18.969Z,41.70
2018-09-21T10:39:22.545Z,41.70
2018-09-21T10:44:25.957Z,41.30
2018-09-21T10:49:29.322Z,41.10
2018-09-21T10:54:32.618Z,41.40
2018-09-21T10:59:36.113Z,41.10
2018-09-21T11:04:39.731Z,40.90
2018-09-21T11:09:43.082Z,40.60
2018-09-21T11:14:47.411Z,40.80
2018-09-21T11:19:50.756Z,40.20
2018-09-21T11:24:54.075Z,39.90
2018-09-21T11:29:57.435Z,40.00
2018-09-21T11:35:00.855Z,40.10
2018-09-21T11:40:04.437Z,40.20
2018-09-21T11:45:08.277Z,40.30
2018-09-21T11:50:11.676Z,40.20
2018-09-21T11:55:15.084Z,40.30
2018-09-21T12:00:19.358Z,40.00
2018-09-21T12:05:23.465Z,39.80
2018-09-21T12:10:26.812Z,39.80
2018-09-21T12:15:30.115Z,40.50
2018-09-21T12:20:33.602Z,40.00
2018-09-21T12:25:37.176Z,40.20
2018-09-21T12:30:40.391Z,40.30
2018-09-21T12:35:43.991Z,40.40
2018-09-21T12:40:47.390Z,40.40
2018-09-21T12:45:50.768Z,40.60
2018-09-21T12:50:54.325Z,40.60
2018-09-21T12:55:57.765Z,41.10
2018-09-21T13:01:01.723Z,42.10
2018-09-21T13:06:05.034Z,41.60
2018-09-21T13:11:08.508Z,42.10
2018-09-21T13:16:12.749Z,42.30
2018-09-21T13:21:16.491Z,42.30
2018-09-21T13:26:19.807Z,41.90
2018-09-21T13:31:23.290Z,41.70
2018-09-21T13:36:27.251Z,41.60
2018-09-21T13:41:30.704Z,42.20
2018-09-21T13:46:34.129Z,42.40
2018-09-21T13:51:37.666Z,42.50
2018-09-21T13:56:41.328Z,42.60
2018-09-21T14:01:44.636Z,42.70
2018-09-21T14:06:50.142Z,42.70
2018-09-21T14:11:53.477Z,42.30
2018-09-21T14:16:57.710Z,42.20
2018-09-21T14:22:01.127Z,42.60
2018-09-21T14:27:04.510Z,42.90
2018-09-21T14:32:08.159Z,43.10
2018-09-21T14:37:12.088Z,43.20
2018-09-21T14:42:15.502Z,43.20
2018-09-21T14:47:19.654Z,43.30
2018-09-21T14:52:23.222Z,42.80
2018-09-21T14:57:26.697Z,42.80
2018-09-21T15:02:30.666Z,43.20
2018-09-21T15:07:35.749Z,43.40
2018-09-21T15:12:40.369Z,43.50
2018-09-21T15:17:48.074Z,44.30
2018-09-21T15:22:51.750Z,43.80
2018-09-21T15:27:55.783Z,43.80
2018-09-21T15:32:59.335Z,43.60
2018-09-21T15:38:03.103Z,43.50
2018-09-21T15:43:07.520Z,43.50
2018-09-21T15:48:16.108Z,43.70
2018-09-21T15:53:19.512Z,43.70
2018-09-21T15:58:23.155Z,43.90
2018-09-21T16:03:26.953Z,43.90
2018-09-21T16:08:30.544Z,44.00
2018-09-21T16:13:33.865Z,43.90
2018-09-21T16:18:37.221Z,44.00
2018-09-21T16:23:40.858Z,44.30
2018-09-21T16:28:44.543Z,45.40
2018-09-21T16:33:48.244Z,45.50
2018-09-21T16:38:51.853Z,44.70
2018-09-21T16:43:55.680Z,44.80
2018-09-21T16:48:59.145Z,45.10
2018-09-21T16:54:02.513Z,45.60
2018-09-21T16:59:05.908Z,45.70
2018-09-21T17:04:09.829Z,45.70
2018-09-21T17:09:13.375Z,46.00
2018-09-21T17:14:16.783Z,46.60
2018-09-21T17:19:20.438Z,46.20
2018-09-21T17:24:23.918Z,46.80
2018-09-21T17:29:27.349Z,47.60
2018-09-21T17:34:30.836Z,46.60
2018-09-21T17:39:44.750Z,45.90
2018-09-21T17:44:49.091Z,46.00
2018-09-21T17:50:15.489Z,45.80
2018-09-21T17:55:22.167Z,45.50
2018-09-21T18:00:25.725Z,45.20
2018-09-21T18:05:29.236Z,45.40
2018-09-21T18:10:34.726Z,45.30
2018-09-21T18:15:38.546Z,45.20
2018-09-21T18:20:41.903Z,45.20
2018-09-21T18:25:47.338Z,45.20
2018-09-21T18:30:51.520Z,45.40
2018-09-21T18:35:55.857Z,45.60
2018-09-21T18:40:59.619Z,45.80
2018-09-21T18:46:03.118Z,45.80
2018-09-21T18:51:06.626Z,45.90
2018-09-21T18:56:10.147Z,45.90
2018-09-21T19:01:13.936Z,45.80
2018-09-21T19:06:17.509Z,45.70
2018-09-21T19:11:22.144Z,45.70
2018-09-21T19:16:25.453Z,45.50
2018-09-21T19:21:28.958Z,45.60
2018-09-21T19:26:32.552Z,45.80
2018-09-21T19:31:36.100Z,46.00
2018-09-21T19:36:39.686Z,45.70
2018-09-21T19:41:43.039Z,45.50
2018-09-21T19:46:46.672Z,45.60
2018-09-21T19:51:50.265Z,46.10
2018-09-21T19:56:54.198Z,46.00
2018-09-21T20:01:58.327Z,46.30
2018-09-21T20:07:02.936Z,46.80
2018-09-21T20:12:07.002Z,46.90
2018-09-21T20:17:10.494Z,47.40
2018-09-21T20:22:14.101Z,47.40
2018-09-21T20:27:17.720Z,47.10
2018-09-21T20:32:26.426Z,47.00
2018-09-21T20:37:29.909Z,47.20
2018-09-21T20:42:33.451Z,47.60
2018-09-21T20:47:36.768Z,47.20
2018-09-21T20:52:40.207Z,47.00
2018-09-21T20:57:43.481Z,47.00
2018-09-21T21:02:46.990Z,46.90
2018-09-21T21:07:50.391Z,46.80
2018-09-21T21:12:54.067Z,47.00
2018-09-21T21:17:57.548Z,46.80
2018-09-21T21:23:00.852Z,47.10
2018-09-21T21:28:04.280Z,47.20
2018-09-21T21:33:07.656Z,47.10
2018-09-21T21:38:11.624Z,47.70
2018-09-21T21:43:14.947Z,47.10
2018-09-21T21:48:18.213Z,47.10
2018-09-21T21:53:21.605Z,46.90
2018-09-21T21:58:28.543Z,46.80
2018-09-21T22:03:31.880Z,47.00
2018-09-21T22:08:37.880Z,46.90
2018-09-21T22:13:47.434Z,46.90
2018-09-21T22:18:51.123Z,46.80
2018-09-21T22:23:54.340Z,46.40
2018-09-21T22:28:57.734Z,46.70
2018-09-21T22:34:01.020Z,46.80
2018-09-21T22:39:06.700Z,46.80
2018-09-21T22:44:09.951Z,46.80
2018-09-21T22:49:17.236Z,46.80
2018-09-21T22:54:20.618Z,46.70
2018-09-21T22:59:24.382Z,46.70
2018-09-21T23:04:27.635Z,46.70
2018-09-21T23:09:30.842Z,46.60
2018-09-21T23:14:34.246Z,46.70
2018-09-21T23:19:37.524Z,46.50
2018-09-21T23:24:40.836Z,46.60
2018-09-21T23:29:44.120Z,46.40
2018-09-21T23:34:47.341Z,46.70
2018-09-21T23:39:50.613Z,46.50
2018-09-21T23:44:53.962Z,46.40
2018-09-21T23:49:57.176Z,46.40
2018-09-21T23:55:00.409Z,46.40
